sensor_id;sensor_type;location;lat;lon;timestamp;P1;durP1;ratioP1;P2;durP2;ratioP2
10910;SDS011;5508;49.150;11.030;2023-04-25T00:01:55;5.70;;;4.43;;
10910;SDS011;5508;49.150;11.030;2023-04-25T00:04:56;5.77;;;3.60;;
10910;SDS011;5508;49.150;11.030;2023-04-25T00:07:58;3.90;;;3.50;;
10910;SDS011;5508;49.150;11.030;2023-04-25T00:10:58;5.57;;;4.70;;
10910;SDS011;5508;49.150;11.030;2023-04-25T00:14:01;4.10;;;3.57;;
10910;SDS011;5508;49.150;11.030;2023-04-25T00:17:02;3.43;;;3.13;;
10910;SDS011;5508;49.150;11.030;2023-04-25T00:20:04;3.80;;;3.40;;
10910;SDS011;5508;49.150;11.030;2023-04-25T00:23:06;3.93;;;3.57;;
10910;SDS011;5508;49.150;11.030;2023-04-25T00:26:07;4.13;;;3.57;;
10910;SDS011;5508;49.150;11.030;2023-04-25T00:29:08;4.33;;;3.93;;
10910;SDS011;5508;49.150;11.030;2023-04-25T00:32:08;5.57;;;3.90;;
10910;SDS011;5508;49.150;11.030;2023-04-25T00:35:09;4.00;;;3.60;;
10910;SDS011;5508;49.150;11.030;2023-04-25T00:38:10;3.90;;;3.60;;
10910;SDS011;5508;49.150;11.030;2023-04-25T00:41:10;3.90;;;3.60;;
10910;SDS011;5508;49.150;11.030;2023-04-25T00:44:12;3.87;;;3.43;;
10910;SDS011;5508;49.150;11.030;2023-04-25T00:47:13;4.13;;;3.70;;
10910;SDS011;5508;49.150;11.030;2023-04-25T00:50:14;4.90;;;4.00;;
10910;SDS011;5508;49.150;11.030;2023-04-25T00:53:15;6.53;;;4.23;;
10910;SDS011;5508;49.150;11.030;2023-04-25T00:56:16;4.70;;;4.00;;
10910;SDS011;5508;49.150;11.030;2023-04-25T00:59:16;4.90;;;4.37;;
10910;SDS011;5508;49.150;11.030;2023-04-25T01:02:19;5.97;;;4.00;;
10910;SDS011;5508;49.150;11.030;2023-04-25T01:05:20;5.77;;;4.77;;
10910;SDS011;5508;49.150;11.030;2023-04-25T01:08:21;5.73;;;4.67;;
10910;SDS011;5508;49.150;11.030;2023-04-25T01:11:25;6.30;;;5.10;;
10910;SDS011;5508;49.150;11.030;2023-04-25T01:14:26;6.53;;;4.90;;
10910;SDS011;5508;49.150;11.030;2023-04-25T01:17:26;5.93;;;4.53;;
10910;SDS011;5508;49.150;11.030;2023-04-25T01:20:28;7.70;;;5.30;;
10910;SDS011;5508;49.150;11.030;2023-04-25T01:23:29;6.60;;;4.60;;
10910;SDS011;5508;49.150;11.030;2023-04-25T01:26:29;7.07;;;4.43;;
10910;SDS011;5508;49.150;11.030;2023-04-25T01:29:31;6.63;;;4.90;;
10910;SDS011;5508;49.150;11.030;2023-04-25T01:32:33;5.83;;;4.97;;
10910;SDS011;5508;49.150;11.030;2023-04-25T01:35:40;7.00;;;5.00;;
10910;SDS011;5508;49.150;11.030;2023-04-25T01:38:41;5.33;;;4.30;;
10910;SDS011;5508;49.150;11.030;2023-04-25T01:41:42;5.17;;;4.67;;
10910;SDS011;5508;49.150;11.030;2023-04-25T01:44:43;4.70;;;4.20;;
10910;SDS011;5508;49.150;11.030;2023-04-25T01:47:43;5.23;;;4.47;;
10910;SDS011;5508;49.150;11.030;2023-04-25T01:50:48;5.63;;;4.70;;
10910;SDS011;5508;49.150;11.030;2023-04-25T01:53:49;6.30;;;4.23;;
10910;SDS011;5508;49.150;11.030;2023-04-25T01:56:50;4.83;;;4.20;;
10910;SDS011;5508;49.150;11.030;2023-04-25T01:59:51;4.80;;;4.20;;
10910;SDS011;5508;49.150;11.030;2023-04-25T02:03:05;6.17;;;4.30;;
10910;SDS011;5508;49.150;11.030;2023-04-25T02:06:06;6.23;;;3.93;;
10910;SDS011;5508;49.150;11.030;2023-04-25T02:09:06;5.37;;;4.23;;
10910;SDS011;5508;49.150;11.030;2023-04-25T02:12:08;4.40;;;4.00;;
10910;SDS011;5508;49.150;11.030;2023-04-25T02:15:10;5.37;;;4.20;;
10910;SDS011;5508;49.150;11.030;2023-04-25T02:18:10;6.03;;;5.03;;
10910;SDS011;5508;49.150;11.030;2023-04-25T02:21:11;4.53;;;4.03;;
10910;SDS011;5508;49.150;11.030;2023-04-25T02:24:11;4.63;;;4.23;;
10910;SDS011;5508;49.150;11.030;2023-04-25T02:27:12;6.67;;;4.20;;
10910;SDS011;5508;49.150;11.030;2023-04-25T02:30:13;7.83;;;4.33;;
10910;SDS011;5508;49.150;11.030;2023-04-25T02:33:14;4.83;;;4.10;;
10910;SDS011;5508;49.150;11.030;2023-04-25T02:36:16;4.37;;;3.93;;
10910;SDS011;5508;49.150;11.030;2023-04-25T02:39:17;5.20;;;3.90;;
10910;SDS011;5508;49.150;11.030;2023-04-25T02:42:18;4.20;;;3.80;;
10910;SDS011;5508;49.150;11.030;2023-04-25T02:45:19;4.40;;;3.80;;
10910;SDS011;5508;49.150;11.030;2023-04-25T02:48:19;4.43;;;3.60;;
10910;SDS011;5508;49.150;11.030;2023-04-25T02:51:20;5.10;;;3.70;;
10910;SDS011;5508;49.150;11.030;2023-04-25T02:54:21;4.13;;;3.50;;
10910;SDS011;5508;49.150;11.030;2023-04-25T02:57:21;7.10;;;3.80;;
10910;SDS011;5508;49.150;11.030;2023-04-25T03:00:22;4.73;;;3.50;;
10910;SDS011;5508;49.150;11.030;2023-04-25T03:03:22;4.67;;;3.37;;
10910;SDS011;5508;49.150;11.030;2023-04-25T03:06:23;5.37;;;3.73;;
10910;SDS011;5508;49.150;11.030;2023-04-25T03:09:24;4.07;;;3.53;;
10910;SDS011;5508;49.150;11.030;2023-04-25T03:12:24;4.07;;;3.37;;
10910;SDS011;5508;49.150;11.030;2023-04-25T03:15:25;5.97;;;3.67;;
10910;SDS011;5508;49.150;11.030;2023-04-25T03:18:26;4.93;;;3.83;;
10910;SDS011;5508;49.150;11.030;2023-04-25T03:21:27;4.13;;;3.40;;
10910;SDS011;5508;49.150;11.030;2023-04-25T03:24:27;4.53;;;3.97;;
10910;SDS011;5508;49.150;11.030;2023-04-25T03:27:28;4.73;;;3.93;;
10910;SDS011;5508;49.150;11.030;2023-04-25T03:30:28;4.20;;;3.80;;
10910;SDS011;5508;49.150;11.030;2023-04-25T03:33:29;5.93;;;3.90;;
10910;SDS011;5508;49.150;11.030;2023-04-25T03:36:30;4.83;;;4.17;;
10910;SDS011;5508;49.150;11.030;2023-04-25T03:39:30;4.77;;;4.30;;
10910;SDS011;5508;49.150;11.030;2023-04-25T03:42:31;4.47;;;3.67;;
10910;SDS011;5508;49.150;11.030;2023-04-25T03:45:32;4.07;;;3.60;;
10910;SDS011;5508;49.150;11.030;2023-04-25T03:48:32;6.30;;;4.17;;
10910;SDS011;5508;49.150;11.030;2023-04-25T03:51:33;5.63;;;4.00;;
10910;SDS011;5508;49.150;11.030;2023-04-25T03:54:33;4.83;;;4.27;;
10910;SDS011;5508;49.150;11.030;2023-04-25T03:57:34;4.37;;;3.90;;
10910;SDS011;5508;49.150;11.030;2023-04-25T04:00:35;4.70;;;4.07;;
10910;SDS011;5508;49.150;11.030;2023-04-25T04:03:36;4.97;;;3.97;;
10910;SDS011;5508;49.150;11.030;2023-04-25T04:06:37;3.87;;;3.47;;
10910;SDS011;5508;49.150;11.030;2023-04-25T04:09:37;6.50;;;4.23;;
10910;SDS011;5508;49.150;11.030;2023-04-25T04:12:38;7.43;;;4.03;;
10910;SDS011;5508;49.150;11.030;2023-04-25T04:15:39;4.20;;;3.80;;
10910;SDS011;5508;49.150;11.030;2023-04-25T04:18:39;6.50;;;3.70;;
10910;SDS011;5508;49.150;11.030;2023-04-25T04:21:40;6.03;;;5.40;;
10910;SDS011;5508;49.150;11.030;2023-04-25T04:24:40;11.67;;;8.50;;
10910;SDS011;5508;49.150;11.030;2023-04-25T04:27:43;24.87;;;17.07;;
10910;SDS011;5508;49.150;11.030;2023-04-25T04:30:44;9.90;;;7.43;;
10910;SDS011;5508;49.150;11.030;2023-04-25T04:33:45;4.40;;;4.00;;
10910;SDS011;5508;49.150;11.030;2023-04-25T04:36:47;5.97;;;4.40;;
10910;SDS011;5508;49.150;11.030;2023-04-25T04:39:47;9.47;;;6.47;;
10910;SDS011;5508;49.150;11.030;2023-04-25T04:42:48;7.17;;;5.27;;
10910;SDS011;5508;49.150;11.030;2023-04-25T04:45:49;6.57;;;4.90;;
10910;SDS011;5508;49.150;11.030;2023-04-25T04:48:50;7.93;;;4.37;;
10910;SDS011;5508;49.150;11.030;2023-04-25T04:51:51;8.27;;;4.57;;
10910;SDS011;5508;49.150;11.030;2023-04-25T04:54:53;5.30;;;4.17;;
10910;SDS011;5508;49.150;11.030;2023-04-25T04:57:54;7.37;;;4.20;;
10910;SDS011;5508;49.150;11.030;2023-04-25T05:00:54;4.67;;;3.90;;
10910;SDS011;5508;49.150;11.030;2023-04-25T05:03:56;6.03;;;3.63;;
10910;SDS011;5508;49.150;11.030;2023-04-25T05:07:00;4.40;;;4.00;;
10910;SDS011;5508;49.150;11.030;2023-04-25T05:10:00;6.40;;;4.30;;
10910;SDS011;5508;49.150;11.030;2023-04-25T05:13:01;4.47;;;3.80;;
10910;SDS011;5508;49.150;11.030;2023-04-25T05:16:02;4.00;;;3.60;;
10910;SDS011;5508;49.150;11.030;2023-04-25T05:19:03;5.83;;;4.63;;
10910;SDS011;5508;49.150;11.030;2023-04-25T05:22:04;4.20;;;3.80;;
10910;SDS011;5508;49.150;11.030;2023-04-25T05:25:05;4.47;;;3.90;;
10910;SDS011;5508;49.150;11.030;2023-04-25T05:28:07;4.90;;;4.50;;
10910;SDS011;5508;49.150;11.030;2023-04-25T05:31:09;5.50;;;4.73;;
10910;SDS011;5508;49.150;11.030;2023-04-25T05:34:10;5.00;;;4.50;;
10910;SDS011;5508;49.150;11.030;2023-04-25T05:37:10;5.13;;;4.53;;
10910;SDS011;5508;49.150;11.030;2023-04-25T05:40:11;8.90;;;5.13;;
10910;SDS011;5508;49.150;11.030;2023-04-25T05:43:12;6.37;;;5.00;;
10910;SDS011;5508;49.150;11.030;2023-04-25T05:46:13;6.30;;;5.17;;
10910;SDS011;5508;49.150;11.030;2023-04-25T05:49:14;8.93;;;5.07;;
10910;SDS011;5508;49.150;11.030;2023-04-25T05:52:14;5.03;;;4.50;;
10910;SDS011;5508;49.150;11.030;2023-04-25T05:55:15;6.00;;;5.30;;
10910;SDS011;5508;49.150;11.030;2023-04-25T05:58:16;7.23;;;6.03;;
10910;SDS011;5508;49.150;11.030;2023-04-25T06:01:16;5.93;;;5.33;;
10910;SDS011;5508;49.150;11.030;2023-04-25T06:04:17;6.97;;;5.30;;
10910;SDS011;5508;49.150;11.030;2023-04-25T06:07:18;8.13;;;4.63;;
10910;SDS011;5508;49.150;11.030;2023-04-25T06:10:19;6.67;;;5.63;;
10910;SDS011;5508;49.150;11.030;2023-04-25T06:13:20;5.73;;;5.03;;
10910;SDS011;5508;49.150;11.030;2023-04-25T06:16:21;7.27;;;5.80;;
10910;SDS011;5508;49.150;11.030;2023-04-25T06:19:21;6.33;;;5.73;;
10910;SDS011;5508;49.150;11.030;2023-04-25T06:22:22;6.63;;;5.23;;
10910;SDS011;5508;49.150;11.030;2023-04-25T06:25:23;6.90;;;5.43;;
10910;SDS011;5508;49.150;11.030;2023-04-25T06:28:23;6.13;;;5.43;;
10910;SDS011;5508;49.150;11.030;2023-04-25T06:31:24;5.97;;;5.40;;
10910;SDS011;5508;49.150;11.030;2023-04-25T06:34:25;6.90;;;5.13;;
10910;SDS011;5508;49.150;11.030;2023-04-25T06:37:25;5.33;;;4.83;;
10910;SDS011;5508;49.150;11.030;2023-04-25T06:40:26;6.13;;;4.77;;
10910;SDS011;5508;49.150;11.030;2023-04-25T06:43:27;7.17;;;5.30;;
10910;SDS011;5508;49.150;11.030;2023-04-25T06:46:27;6.80;;;5.70;;
10910;SDS011;5508;49.150;11.030;2023-04-25T06:49:28;7.07;;;5.10;;
10910;SDS011;5508;49.150;11.030;2023-04-25T06:52:29;5.17;;;4.67;;
10910;SDS011;5508;49.150;11.030;2023-04-25T06:55:29;6.37;;;4.60;;
10910;SDS011;5508;49.150;11.030;2023-04-25T06:58:30;6.17;;;4.97;;
10910;SDS011;5508;49.150;11.030;2023-04-25T07:01:31;8.23;;;5.43;;
10910;SDS011;5508;49.150;11.030;2023-04-25T07:04:31;4.90;;;4.40;;
10910;SDS011;5508;49.150;11.030;2023-04-25T07:07:32;5.73;;;4.70;;
10910;SDS011;5508;49.150;11.030;2023-04-25T07:10:32;4.93;;;4.43;;
10910;SDS011;5508;49.150;11.030;2023-04-25T07:13:33;5.07;;;4.50;;
10910;SDS011;5508;49.150;11.030;2023-04-25T07:16:34;4.83;;;4.37;;
10910;SDS011;5508;49.150;11.030;2023-04-25T07:19:34;5.17;;;4.67;;
10910;SDS011;5508;49.150;11.030;2023-04-25T07:22:36;4.97;;;4.47;;
10910;SDS011;5508;49.150;11.030;2023-04-25T07:25:37;6.30;;;5.20;;
10910;SDS011;5508;49.150;11.030;2023-04-25T07:28:37;6.10;;;5.37;;
10910;SDS011;5508;49.150;11.030;2023-04-25T07:31:38;7.90;;;5.97;;
10910;SDS011;5508;49.150;11.030;2023-04-25T07:34:39;6.80;;;5.37;;
10910;SDS011;5508;49.150;11.030;2023-04-25T07:37:39;7.17;;;6.40;;
10910;SDS011;5508;49.150;11.030;2023-04-25T07:40:40;7.17;;;6.47;;
10910;SDS011;5508;49.150;11.030;2023-04-25T07:43:41;7.40;;;6.57;;
10910;SDS011;5508;49.150;11.030;2023-04-25T07:46:41;6.17;;;5.57;;
10910;SDS011;5508;49.150;11.030;2023-04-25T07:49:42;7.97;;;6.40;;
10910;SDS011;5508;49.150;11.030;2023-04-25T07:52:42;6.23;;;5.67;;
10910;SDS011;5508;49.150;11.030;2023-04-25T07:55:43;9.47;;;5.80;;
10910;SDS011;5508;49.150;11.030;2023-04-25T07:58:43;6.70;;;6.03;;
10910;SDS011;5508;49.150;11.030;2023-04-25T08:01:44;6.40;;;5.80;;
10910;SDS011;5508;49.150;11.030;2023-04-25T08:04:45;6.00;;;5.40;;
10910;SDS011;5508;49.150;11.030;2023-04-25T08:07:46;5.60;;;5.00;;
10910;SDS011;5508;49.150;11.030;2023-04-25T08:10:46;6.13;;;5.53;;
10910;SDS011;5508;49.150;11.030;2023-04-25T08:13:48;7.73;;;5.93;;
10910;SDS011;5508;49.150;11.030;2023-04-25T08:16:48;7.53;;;6.47;;
10910;SDS011;5508;49.150;11.030;2023-04-25T08:19:49;7.43;;;6.13;;
10910;SDS011;5508;49.150;11.030;2023-04-25T08:22:50;6.13;;;5.47;;
10910;SDS011;5508;49.150;11.030;2023-04-25T08:25:50;6.17;;;5.20;;
10910;SDS011;5508;49.150;11.030;2023-04-25T08:28:51;5.17;;;4.47;;
10910;SDS011;5508;49.150;11.030;2023-04-25T08:31:51;6.03;;;5.17;;
10910;SDS011;5508;49.150;11.030;2023-04-25T08:34:55;5.83;;;5.20;;
10910;SDS011;5508;49.150;11.030;2023-04-25T08:37:55;6.90;;;5.67;;
10910;SDS011;5508;49.150;11.030;2023-04-25T08:40:56;6.20;;;5.27;;
10910;SDS011;5508;49.150;11.030;2023-04-25T08:43:57;6.33;;;5.47;;
10910;SDS011;5508;49.150;11.030;2023-04-25T08:47:02;5.37;;;4.87;;
10910;SDS011;5508;49.150;11.030;2023-04-25T08:50:04;6.67;;;4.77;;
10910;SDS011;5508;49.150;11.030;2023-04-25T08:53:07;7.47;;;5.53;;
10910;SDS011;5508;49.150;11.030;2023-04-25T08:56:10;5.87;;;5.30;;
10910;SDS011;5508;49.150;11.030;2023-04-25T08:59:16;5.27;;;4.70;;
10910;SDS011;5508;49.150;11.030;2023-04-25T09:02:17;5.83;;;4.93;;
10910;SDS011;5508;49.150;11.030;2023-04-25T09:05:20;4.77;;;4.13;;
10910;SDS011;5508;49.150;11.030;2023-04-25T09:08:22;5.00;;;4.50;;
10910;SDS011;5508;49.150;11.030;2023-04-25T09:11:23;5.23;;;4.73;;
10910;SDS011;5508;49.150;11.030;2023-04-25T09:14:24;5.10;;;4.30;;
10910;SDS011;5508;49.150;11.030;2023-04-25T09:17:25;4.90;;;4.40;;
10910;SDS011;5508;49.150;11.030;2023-04-25T09:20:26;5.13;;;4.57;;
10910;SDS011;5508;49.150;11.030;2023-04-25T09:23:27;4.87;;;4.00;;
10910;SDS011;5508;49.150;11.030;2023-04-25T09:26:28;5.17;;;3.80;;
10910;SDS011;5508;49.150;11.030;2023-04-25T09:29:32;4.43;;;3.90;;
10910;SDS011;5508;49.150;11.030;2023-04-25T09:32:34;4.43;;;3.80;;
10910;SDS011;5508;49.150;11.030;2023-04-25T09:35:38;5.60;;;4.30;;
10910;SDS011;5508;49.150;11.030;2023-04-25T09:38:41;4.13;;;3.80;;
10910;SDS011;5508;49.150;11.030;2023-04-25T09:41:43;4.90;;;4.40;;
10910;SDS011;5508;49.150;11.030;2023-04-25T09:44:45;4.50;;;4.10;;
10910;SDS011;5508;49.150;11.030;2023-04-25T09:47:46;5.50;;;4.43;;
10910;SDS011;5508;49.150;11.030;2023-04-25T09:51:06;4.73;;;4.30;;
10910;SDS011;5508;49.150;11.030;2023-04-25T09:54:07;5.93;;;3.80;;
10910;SDS011;5508;49.150;11.030;2023-04-25T09:57:12;4.07;;;3.50;;
10910;SDS011;5508;49.150;11.030;2023-04-25T10:00:24;3.50;;;3.20;;
10910;SDS011;5508;49.150;11.030;2023-04-25T10:03:25;4.60;;;3.83;;
10910;SDS011;5508;49.150;11.030;2023-04-25T10:06:26;4.57;;;3.43;;
10910;SDS011;5508;49.150;11.030;2023-04-25T10:09:28;3.43;;;3.13;;
10910;SDS011;5508;49.150;11.030;2023-04-25T10:12:33;4.10;;;3.10;;
10910;SDS011;5508;49.150;11.030;2023-04-25T10:15:35;4.73;;;3.63;;
10910;SDS011;5508;49.150;11.030;2023-04-25T10:18:38;4.80;;;3.30;;
10910;SDS011;5508;49.150;11.030;2023-04-25T10:21:40;7.40;;;4.87;;
10910;SDS011;5508;49.150;11.030;2023-04-25T10:24:48;6.83;;;4.80;;
10910;SDS011;5508;49.150;11.030;2023-04-25T10:27:51;4.97;;;4.33;;
10910;SDS011;5508;49.150;11.030;2023-04-25T10:31:02;4.80;;;3.67;;
10910;SDS011;5508;49.150;11.030;2023-04-25T10:34:04;4.27;;;3.87;;
10910;SDS011;5508;49.150;11.030;2023-04-25T10:37:05;4.20;;;3.37;;
10910;SDS011;5508;49.150;11.030;2023-04-25T10:40:09;5.13;;;3.60;;
10910;SDS011;5508;49.150;11.030;2023-04-25T10:46:29;4.47;;;3.40;;
10910;SDS011;5508;49.150;11.030;2023-04-25T10:52:42;5.30;;;4.03;;
10910;SDS011;5508;49.150;11.030;2023-04-25T10:55:51;4.17;;;3.30;;
10910;SDS011;5508;49.150;11.030;2023-04-25T10:58:51;6.10;;;3.03;;
10910;SDS011;5508;49.150;11.030;2023-04-25T11:02:02;3.73;;;2.87;;
10910;SDS011;5508;49.150;11.030;2023-04-25T11:05:17;4.43;;;3.50;;
10910;SDS011;5508;49.150;11.030;2023-04-25T11:08:30;4.30;;;3.43;;
10910;SDS011;5508;49.150;11.030;2023-04-25T11:11:56;2.60;;;2.40;;
10910;SDS011;5508;49.150;11.030;2023-04-25T11:14:59;3.27;;;2.97;;
10910;SDS011;5508;49.150;11.030;2023-04-25T11:18:01;5.43;;;2.83;;
10910;SDS011;5508;49.150;11.030;2023-04-25T11:21:02;3.93;;;2.97;;
10910;SDS011;5508;49.150;11.030;2023-04-25T11:24:03;3.97;;;3.53;;
10910;SDS011;5508;49.150;11.030;2023-04-25T11:27:04;4.47;;;3.40;;
10910;SDS011;5508;49.150;11.030;2023-04-25T11:30:14;5.37;;;3.73;;
10910;SDS011;5508;49.150;11.030;2023-04-25T11:33:16;6.17;;;3.90;;
10910;SDS011;5508;49.150;11.030;2023-04-25T11:36:17;5.00;;;3.40;;
10910;SDS011;5508;49.150;11.030;2023-04-25T11:39:18;3.27;;;2.63;;
10910;SDS011;5508;49.150;11.030;2023-04-25T11:42:19;4.27;;;3.00;;
10910;SDS011;5508;49.150;11.030;2023-04-25T11:45:20;3.10;;;2.80;;
10910;SDS011;5508;49.150;11.030;2023-04-25T11:48:22;3.97;;;3.00;;
10910;SDS011;5508;49.150;11.030;2023-04-25T11:51:23;4.77;;;2.93;;
10910;SDS011;5508;49.150;11.030;2023-04-25T11:54:23;3.93;;;2.70;;
10910;SDS011;5508;49.150;11.030;2023-04-25T11:57:24;4.73;;;2.77;;
10910;SDS011;5508;49.150;11.030;2023-04-25T12:00:25;3.23;;;2.87;;
10910;SDS011;5508;49.150;11.030;2023-04-25T12:03:26;3.57;;;3.00;;
10910;SDS011;5508;49.150;11.030;2023-04-25T12:06:31;4.80;;;2.80;;
10910;SDS011;5508;49.150;11.030;2023-04-25T12:09:32;4.60;;;3.33;;
10910;SDS011;5508;49.150;11.030;2023-04-25T12:12:33;6.57;;;3.13;;
10910;SDS011;5508;49.150;11.030;2023-04-25T12:15:35;4.87;;;2.70;;
10910;SDS011;5508;49.150;11.030;2023-04-25T12:18:36;6.00;;;3.30;;
10910;SDS011;5508;49.150;11.030;2023-04-25T12:21:36;4.90;;;2.70;;
10910;SDS011;5508;49.150;11.030;2023-04-25T12:24:37;4.73;;;3.33;;
10910;SDS011;5508;49.150;11.030;2023-04-25T12:27:38;5.13;;;3.30;;
10910;SDS011;5508;49.150;11.030;2023-04-25T12:30:54;6.10;;;2.97;;
10910;SDS011;5508;49.150;11.030;2023-04-25T12:34:05;3.63;;;2.87;;
10910;SDS011;5508;49.150;11.030;2023-04-25T12:37:07;4.87;;;3.40;;
10910;SDS011;5508;49.150;11.030;2023-04-25T12:40:07;5.63;;;2.93;;
10910;SDS011;5508;49.150;11.030;2023-04-25T12:43:08;4.57;;;3.20;;
10910;SDS011;5508;49.150;11.030;2023-04-25T12:46:09;6.43;;;3.50;;
10910;SDS011;5508;49.150;11.030;2023-04-25T12:49:10;4.63;;;3.40;;
10910;SDS011;5508;49.150;11.030;2023-04-25T12:52:10;5.03;;;3.90;;
10910;SDS011;5508;49.150;11.030;2023-04-25T12:55:11;3.47;;;2.63;;
10910;SDS011;5508;49.150;11.030;2023-04-25T12:58:12;3.87;;;2.40;;
10910;SDS011;5508;49.150;11.030;2023-04-25T13:01:14;3.73;;;2.63;;
10910;SDS011;5508;49.150;11.030;2023-04-25T13:04:14;3.93;;;2.53;;
10910;SDS011;5508;49.150;11.030;2023-04-25T13:07:15;2.50;;;2.27;;
10910;SDS011;5508;49.150;11.030;2023-04-25T13:10:16;4.13;;;2.50;;
10910;SDS011;5508;49.150;11.030;2023-04-25T13:13:17;3.67;;;2.60;;
10910;SDS011;5508;49.150;11.030;2023-04-25T13:16:18;5.00;;;2.40;;
10910;SDS011;5508;49.150;11.030;2023-04-25T13:19:20;4.67;;;2.40;;
10910;SDS011;5508;49.150;11.030;2023-04-25T13:22:21;2.47;;;2.27;;
10910;SDS011;5508;49.150;11.030;2023-04-25T13:25:21;2.70;;;1.93;;
10910;SDS011;5508;49.150;11.030;2023-04-25T13:28:22;4.30;;;2.53;;
10910;SDS011;5508;49.150;11.030;2023-04-25T13:31:23;3.83;;;2.40;;
10910;SDS011;5508;49.150;11.030;2023-04-25T13:34:24;2.73;;;2.43;;
10910;SDS011;5508;49.150;11.030;2023-04-25T13:37:25;3.53;;;2.43;;
10910;SDS011;5508;49.150;11.030;2023-04-25T13:40:25;3.60;;;2.67;;
10910;SDS011;5508;49.150;11.030;2023-04-25T13:43:26;4.47;;;2.60;;
10910;SDS011;5508;49.150;11.030;2023-04-25T13:46:27;4.83;;;3.13;;
10910;SDS011;5508;49.150;11.030;2023-04-25T13:49:28;3.80;;;3.00;;
10910;SDS011;5508;49.150;11.030;2023-04-25T13:52:28;3.70;;;3.00;;
10910;SDS011;5508;49.150;11.030;2023-04-25T13:55:29;3.63;;;2.57;;
10910;SDS011;5508;49.150;11.030;2023-04-25T13:58:30;4.17;;;3.10;;
10910;SDS011;5508;49.150;11.030;2023-04-25T14:01:32;4.47;;;3.87;;
10910;SDS011;5508;49.150;11.030;2023-04-25T14:04:35;4.47;;;3.37;;
10910;SDS011;5508;49.150;11.030;2023-04-25T14:07:36;6.73;;;3.87;;
10910;SDS011;5508;49.150;11.030;2023-04-25T14:10:37;4.70;;;4.20;;
10910;SDS011;5508;49.150;11.030;2023-04-25T14:13:37;5.83;;;4.00;;
10910;SDS011;5508;49.150;11.030;2023-04-25T14:16:38;3.83;;;3.40;;
10910;SDS011;5508;49.150;11.030;2023-04-25T14:19:39;4.97;;;4.20;;
10910;SDS011;5508;49.150;11.030;2023-04-25T14:22:43;5.00;;;4.43;;
10910;SDS011;5508;49.150;11.030;2023-04-25T14:25:43;4.87;;;3.03;;
10910;SDS011;5508;49.150;11.030;2023-04-25T14:28:44;4.43;;;3.60;;
10910;SDS011;5508;49.150;11.030;2023-04-25T14:31:45;3.57;;;3.03;;
10910;SDS011;5508;49.150;11.030;2023-04-25T14:34:45;5.37;;;3.70;;
10910;SDS011;5508;49.150;11.030;2023-04-25T14:37:46;5.30;;;3.13;;
10910;SDS011;5508;49.150;11.030;2023-04-25T14:40:46;4.70;;;3.67;;
10910;SDS011;5508;49.150;11.030;2023-04-25T14:43:47;5.27;;;2.97;;
10910;SDS011;5508;49.150;11.030;2023-04-25T14:46:47;5.30;;;3.47;;
10910;SDS011;5508;49.150;11.030;2023-04-25T14:49:51;3.07;;;2.77;;
10910;SDS011;5508;49.150;11.030;2023-04-25T14:52:54;3.23;;;2.80;;
10910;SDS011;5508;49.150;11.030;2023-04-25T14:55:58;3.00;;;2.50;;
10910;SDS011;5508;49.150;11.030;2023-04-25T14:58:59;5.03;;;2.63;;
10910;SDS011;5508;49.150;11.030;2023-04-25T15:02:00;3.63;;;2.77;;
10910;SDS011;5508;49.150;11.030;2023-04-25T15:05:01;3.90;;;3.30;;
10910;SDS011;5508;49.150;11.030;2023-04-25T15:08:01;4.60;;;3.33;;
10910;SDS011;5508;49.150;11.030;2023-04-25T15:11:02;5.13;;;4.07;;
10910;SDS011;5508;49.150;11.030;2023-04-25T15:14:03;3.00;;;2.53;;
10910;SDS011;5508;49.150;11.030;2023-04-25T15:17:04;4.33;;;3.83;;
10910;SDS011;5508;49.150;11.030;2023-04-25T15:20:05;6.00;;;3.27;;
10910;SDS011;5508;49.150;11.030;2023-04-25T15:23:12;6.30;;;3.23;;
10910;SDS011;5508;49.150;11.030;2023-04-25T15:26:13;4.50;;;3.17;;
10910;SDS011;5508;49.150;11.030;2023-04-25T15:29:14;6.70;;;4.63;;
10910;SDS011;5508;49.150;11.030;2023-04-25T15:32:15;4.83;;;3.93;;
10910;SDS011;5508;49.150;11.030;2023-04-25T15:35:16;4.13;;;2.87;;
10910;SDS011;5508;49.150;11.030;2023-04-25T15:38:16;5.77;;;4.60;;
10910;SDS011;5508;49.150;11.030;2023-04-25T15:41:17;4.07;;;3.67;;
10910;SDS011;5508;49.150;11.030;2023-04-25T15:44:17;4.47;;;3.53;;
10910;SDS011;5508;49.150;11.030;2023-04-25T15:47:18;4.60;;;3.30;;
10910;SDS011;5508;49.150;11.030;2023-04-25T15:50:19;6.23;;;4.30;;
10910;SDS011;5508;49.150;11.030;2023-04-25T15:53:20;5.13;;;3.07;;
10910;SDS011;5508;49.150;11.030;2023-04-25T15:56:21;5.37;;;3.70;;
10910;SDS011;5508;49.150;11.030;2023-04-25T15:59:21;6.40;;;3.90;;
10910;SDS011;5508;49.150;11.030;2023-04-25T16:02:22;5.70;;;3.90;;
10910;SDS011;5508;49.150;11.030;2023-04-25T16:05:22;8.00;;;4.77;;
10910;SDS011;5508;49.150;11.030;2023-04-25T16:08:23;9.90;;;4.03;;
10910;SDS011;5508;49.150;11.030;2023-04-25T16:11:25;4.70;;;3.60;;
10910;SDS011;5508;49.150;11.030;2023-04-25T16:14:25;7.70;;;4.23;;
10910;SDS011;5508;49.150;11.030;2023-04-25T16:17:26;9.20;;;4.00;;
10910;SDS011;5508;49.150;11.030;2023-04-25T16:20:29;7.20;;;3.80;;
10910;SDS011;5508;49.150;11.030;2023-04-25T16:23:30;4.10;;;3.40;;
10910;SDS011;5508;49.150;11.030;2023-04-25T16:26:31;3.83;;;3.17;;
10910;SDS011;5508;49.150;11.030;2023-04-25T16:29:31;5.90;;;4.40;;
10910;SDS011;5508;49.150;11.030;2023-04-25T16:32:32;7.37;;;4.30;;
10910;SDS011;5508;49.150;11.030;2023-04-25T16:35:33;7.50;;;6.53;;
10910;SDS011;5508;49.150;11.030;2023-04-25T16:38:34;4.60;;;4.13;;
10910;SDS011;5508;49.150;11.030;2023-04-25T16:41:35;6.40;;;3.60;;
10910;SDS011;5508;49.150;11.030;2023-04-25T16:44:36;4.60;;;4.00;;
10910;SDS011;5508;49.150;11.030;2023-04-25T16:47:36;4.37;;;3.60;;
10910;SDS011;5508;49.150;11.030;2023-04-25T16:50:37;5.87;;;4.23;;
10910;SDS011;5508;49.150;11.030;2023-04-25T16:53:38;7.87;;;5.50;;
10910;SDS011;5508;49.150;11.030;2023-04-25T16:56:38;5.43;;;3.90;;
10910;SDS011;5508;49.150;11.030;2023-04-25T16:59:40;7.07;;;3.87;;
10910;SDS011;5508;49.150;11.030;2023-04-25T17:02:41;6.77;;;5.27;;
10910;SDS011;5508;49.150;11.030;2023-04-25T17:05:42;5.13;;;4.50;;
10910;SDS011;5508;49.150;11.030;2023-04-25T17:08:43;15.07;;;8.57;;
10910;SDS011;5508;49.150;11.030;2023-04-25T17:11:44;7.30;;;5.57;;
10910;SDS011;5508;49.150;11.030;2023-04-25T17:14:45;10.93;;;6.00;;
10910;SDS011;5508;49.150;11.030;2023-04-25T17:17:46;5.40;;;4.33;;
10910;SDS011;5508;49.150;11.030;2023-04-25T17:20:46;7.23;;;5.87;;
10910;SDS011;5508;49.150;11.030;2023-04-25T17:23:47;9.80;;;6.10;;
10910;SDS011;5508;49.150;11.030;2023-04-25T17:26:47;9.20;;;6.13;;
10910;SDS011;5508;49.150;11.030;2023-04-25T17:29:48;5.80;;;4.30;;
10910;SDS011;5508;49.150;11.030;2023-04-25T17:32:49;8.20;;;5.47;;
10910;SDS011;5508;49.150;11.030;2023-04-25T17:35:49;5.60;;;4.57;;
10910;SDS011;5508;49.150;11.030;2023-04-25T17:38:50;10.73;;;5.83;;
10910;SDS011;5508;49.150;11.030;2023-04-25T17:41:50;5.67;;;4.57;;
10910;SDS011;5508;49.150;11.030;2023-04-25T17:44:51;5.03;;;4.53;;
10910;SDS011;5508;49.150;11.030;2023-04-25T17:47:53;6.10;;;4.97;;
10910;SDS011;5508;49.150;11.030;2023-04-25T17:50:54;5.43;;;4.13;;
10910;SDS011;5508;49.150;11.030;2023-04-25T17:53:55;7.70;;;4.67;;
10910;SDS011;5508;49.150;11.030;2023-04-25T17:56:56;8.30;;;4.70;;
10910;SDS011;5508;49.150;11.030;2023-04-25T17:59:56;6.27;;;4.20;;
10910;SDS011;5508;49.150;11.030;2023-04-25T18:02:57;6.07;;;4.67;;
10910;SDS011;5508;49.150;11.030;2023-04-25T18:05:57;7.63;;;4.77;;
10910;SDS011;5508;49.150;11.030;2023-04-25T18:08:58;5.27;;;4.47;;
10910;SDS011;5508;49.150;11.030;2023-04-25T18:12:01;6.17;;;4.80;;
10910;SDS011;5508;49.150;11.030;2023-04-25T18:15:02;6.10;;;4.10;;
10910;SDS011;5508;49.150;11.030;2023-04-25T18:18:06;8.57;;;5.13;;
10910;SDS011;5508;49.150;11.030;2023-04-25T18:21:14;7.83;;;4.97;;